sensor_id;sensor_type;location;lat;lon;timestamp;P1;durP1;ratioP1;P2;durP2;ratioP2
11203;SDS011;5659;49.408;11.116;2023-11-21T00:01:53;7.47;;;2.40;;
11203;SDS011;5659;49.408;11.116;2023-11-21T00:04:19;5.53;;;2.20;;
11203;SDS011;5659;49.408;11.116;2023-11-21T00:06:46;5.30;;;2.20;;
11203;SDS011;5659;49.408;11.116;2023-11-21T00:09:12;3.80;;;2.07;;
11203;SDS011;5659;49.408;11.116;2023-11-21T00:11:40;4.70;;;1.90;;
11203;SDS011;5659;49.408;11.116;2023-11-21T00:14:06;6.43;;;2.13;;
11203;SDS011;5659;49.408;11.116;2023-11-21T00:16:33;5.97;;;2.10;;
11203;SDS011;5659;49.408;11.116;2023-11-21T00:18:59;10.70;;;2.20;;
11203;SDS011;5659;49.408;11.116;2023-11-21T00:21:25;3.47;;;2.30;;
11203;SDS011;5659;49.408;11.116;2023-11-21T00:23:51;6.87;;;2.10;;
11203;SDS011;5659;49.408;11.116;2023-11-21T00:26:17;8.67;;;2.30;;
11203;SDS011;5659;49.408;11.116;2023-11-21T00:28:43;6.73;;;2.30;;
11203;SDS011;5659;49.408;11.116;2023-11-21T00:31:09;7.17;;;2.10;;
11203;SDS011;5659;49.408;11.116;2023-11-21T00:33:35;7.00;;;2.43;;
11203;SDS011;5659;49.408;11.116;2023-11-21T00:36:01;2.23;;;1.83;;
11203;SDS011;5659;49.408;11.116;2023-11-21T00:38:27;5.70;;;2.50;;
11203;SDS011;5659;49.408;11.116;2023-11-21T00:40:53;8.50;;;2.50;;
11203;SDS011;5659;49.408;11.116;2023-11-21T00:43:22;6.67;;;2.57;;
11203;SDS011;5659;49.408;11.116;2023-11-21T00:45:48;4.90;;;2.57;;
11203;SDS011;5659;49.408;11.116;2023-11-21T00:48:14;11.33;;;2.80;;
11203;SDS011;5659;49.408;11.116;2023-11-21T00:50:40;6.00;;;2.83;;
11203;SDS011;5659;49.408;11.116;2023-11-21T00:53:06;8.13;;;3.00;;
11203;SDS011;5659;49.408;11.116;2023-11-21T00:55:32;6.90;;;2.73;;
11203;SDS011;5659;49.408;11.116;2023-11-21T00:57:59;6.03;;;2.77;;
11203;SDS011;5659;49.408;11.116;2023-11-21T01:00:28;11.73;;;2.90;;
11203;SDS011;5659;49.408;11.116;2023-11-21T01:02:54;10.13;;;3.03;;
11203;SDS011;5659;49.408;11.116;2023-11-21T01:05:20;9.03;;;3.20;;
11203;SDS011;5659;49.408;11.116;2023-11-21T01:07:46;8.10;;;2.73;;
11203;SDS011;5659;49.408;11.116;2023-11-21T01:10:12;6.10;;;2.80;;
11203;SDS011;5659;49.408;11.116;2023-11-21T01:12:38;8.20;;;3.07;;
11203;SDS011;5659;49.408;11.116;2023-11-21T01:15:04;7.63;;;3.10;;
11203;SDS011;5659;49.408;11.116;2023-11-21T01:17:33;8.23;;;3.10;;
11203;SDS011;5659;49.408;11.116;2023-11-21T01:20:00;7.40;;;3.20;;
11203;SDS011;5659;49.408;11.116;2023-11-21T01:22:26;7.00;;;3.00;;
11203;SDS011;5659;49.408;11.116;2023-11-21T01:24:53;9.83;;;3.30;;
11203;SDS011;5659;49.408;11.116;2023-11-21T01:27:19;6.90;;;2.80;;
11203;SDS011;5659;49.408;11.116;2023-11-21T01:29:45;6.63;;;2.70;;
11203;SDS011;5659;49.408;11.116;2023-11-21T01:32:11;5.47;;;2.67;;
11203;SDS011;5659;49.408;11.116;2023-11-21T01:34:37;10.27;;;2.77;;
11203;SDS011;5659;49.408;11.116;2023-11-21T01:37:04;4.13;;;2.37;;
11203;SDS011;5659;49.408;11.116;2023-11-21T01:39:30;6.47;;;2.57;;
11203;SDS011;5659;49.408;11.116;2023-11-21T01:41:56;5.53;;;2.60;;
11203;SDS011;5659;49.408;11.116;2023-11-21T01:44:26;6.97;;;2.73;;
11203;SDS011;5659;49.408;11.116;2023-11-21T01:46:52;6.47;;;2.47;;
11203;SDS011;5659;49.408;11.116;2023-11-21T01:49:18;4.73;;;2.33;;
11203;SDS011;5659;49.408;11.116;2023-11-21T01:51:46;6.27;;;2.30;;
11203;SDS011;5659;49.408;11.116;2023-11-21T01:54:13;8.13;;;2.87;;
11203;SDS011;5659;49.408;11.116;2023-11-21T01:56:39;7.20;;;2.23;;
11203;SDS011;5659;49.408;11.116;2023-11-21T01:59:05;6.00;;;2.20;;
11203;SDS011;5659;49.408;11.116;2023-11-21T02:01:32;6.47;;;2.23;;
11203;SDS011;5659;49.408;11.116;2023-11-21T02:03:58;4.67;;;2.20;;
11203;SDS011;5659;49.408;11.116;2023-11-21T02:06:24;6.30;;;2.20;;
11203;SDS011;5659;49.408;11.116;2023-11-21T02:08:50;7.67;;;2.03;;
11203;SDS011;5659;49.408;11.116;2023-11-21T02:11:16;5.37;;;2.03;;
11203;SDS011;5659;49.408;11.116;2023-11-21T02:13:44;6.70;;;2.10;;
11203;SDS011;5659;49.408;11.116;2023-11-21T02:16:12;7.40;;;2.33;;
11203;SDS011;5659;49.408;11.116;2023-11-21T02:18:39;5.67;;;2.27;;
11203;SDS011;5659;49.408;11.116;2023-11-21T02:21:05;4.83;;;2.10;;
11203;SDS011;5659;49.408;11.116;2023-11-21T02:23:31;6.93;;;2.10;;
11203;SDS011;5659;49.408;11.116;2023-11-21T02:25:57;9.73;;;2.40;;
11203;SDS011;5659;49.408;11.116;2023-11-21T02:28:23;4.67;;;2.33;;
11203;SDS011;5659;49.408;11.116;2023-11-21T02:30:53;7.57;;;2.57;;
11203;SDS011;5659;49.408;11.116;2023-11-21T02:33:24;7.83;;;2.33;;
11203;SDS011;5659;49.408;11.116;2023-11-21T02:35:50;6.07;;;2.60;;
11203;SDS011;5659;49.408;11.116;2023-11-21T02:38:19;5.23;;;2.63;;
11203;SDS011;5659;49.408;11.116;2023-11-21T02:40:45;6.90;;;2.83;;
11203;SDS011;5659;49.408;11.116;2023-11-21T02:43:11;5.17;;;2.57;;
11203;SDS011;5659;49.408;11.116;2023-11-21T02:45:37;5.53;;;2.43;;
11203;SDS011;5659;49.408;11.116;2023-11-21T02:48:03;5.17;;;2.43;;
11203;SDS011;5659;49.408;11.116;2023-11-21T02:50:29;7.77;;;2.47;;
11203;SDS011;5659;49.408;11.116;2023-11-21T02:52:55;5.70;;;2.73;;
11203;SDS011;5659;49.408;11.116;2023-11-21T02:55:25;7.57;;;2.50;;
11203;SDS011;5659;49.408;11.116;2023-11-21T02:57:51;6.47;;;2.43;;
11203;SDS011;5659;49.408;11.116;2023-11-21T03:00:17;13.13;;;2.63;;
11203;SDS011;5659;49.408;11.116;2023-11-21T03:02:43;7.27;;;2.70;;
11203;SDS011;5659;49.408;11.116;2023-11-21T03:05:09;6.03;;;2.90;;
11203;SDS011;5659;49.408;11.116;2023-11-21T03:07:39;7.37;;;3.07;;
11203;SDS011;5659;49.408;11.116;2023-11-21T03:10:06;6.63;;;3.07;;
11203;SDS011;5659;49.408;11.116;2023-11-21T03:12:34;10.33;;;2.70;;
11203;SDS011;5659;49.408;11.116;2023-11-21T03:15:00;5.87;;;2.57;;
11203;SDS011;5659;49.408;11.116;2023-11-21T03:17:27;7.30;;;3.07;;
11203;SDS011;5659;49.408;11.116;2023-11-21T03:19:54;7.77;;;2.80;;
11203;SDS011;5659;49.408;11.116;2023-11-21T03:22:20;10.27;;;3.10;;
11203;SDS011;5659;49.408;11.116;2023-11-21T03:24:46;4.63;;;2.70;;
11203;SDS011;5659;49.408;11.116;2023-11-21T03:27:12;6.90;;;3.00;;
11203;SDS011;5659;49.408;11.116;2023-11-21T03:29:38;5.63;;;2.80;;
11203;SDS011;5659;49.408;11.116;2023-11-21T03:32:04;13.47;;;3.07;;
11203;SDS011;5659;49.408;11.116;2023-11-21T03:34:32;4.07;;;2.80;;
11203;SDS011;5659;49.408;11.116;2023-11-21T03:36:58;9.10;;;3.07;;
11203;SDS011;5659;49.408;11.116;2023-11-21T03:39:24;5.43;;;3.13;;
11203;SDS011;5659;49.408;11.116;2023-11-21T03:41:50;5.30;;;2.93;;
11203;SDS011;5659;49.408;11.116;2023-11-21T03:44:17;8.93;;;2.97;;
11203;SDS011;5659;49.408;11.116;2023-11-21T03:46:43;9.67;;;3.23;;
11203;SDS011;5659;49.408;11.116;2023-11-21T03:49:09;9.33;;;3.20;;
11203;SDS011;5659;49.408;11.116;2023-11-21T03:51:36;10.80;;;3.17;;
11203;SDS011;5659;49.408;11.116;2023-11-21T03:54:02;6.13;;;3.10;;
11203;SDS011;5659;49.408;11.116;2023-11-21T03:56:29;7.87;;;2.77;;
11203;SDS011;5659;49.408;11.116;2023-11-21T03:58:55;8.77;;;3.00;;
11203;SDS011;5659;49.408;11.116;2023-11-21T04:01:21;7.77;;;3.20;;
11203;SDS011;5659;49.408;11.116;2023-11-21T04:03:48;6.13;;;3.17;;
11203;SDS011;5659;49.408;11.116;2023-11-21T04:06:14;12.97;;;3.00;;
11203;SDS011;5659;49.408;11.116;2023-11-21T04:08:40;9.10;;;3.20;;
11203;SDS011;5659;49.408;11.116;2023-11-21T04:11:06;7.00;;;3.30;;
11203;SDS011;5659;49.408;11.116;2023-11-21T04:13:32;5.87;;;3.17;;
11203;SDS011;5659;49.408;11.116;2023-11-21T04:15:58;6.47;;;3.00;;
11203;SDS011;5659;49.408;11.116;2023-11-21T04:18:24;9.30;;;3.50;;
11203;SDS011;5659;49.408;11.116;2023-11-21T04:20:50;7.87;;;3.00;;
11203;SDS011;5659;49.408;11.116;2023-11-21T04:23:16;8.67;;;3.47;;
11203;SDS011;5659;49.408;11.116;2023-11-21T04:25:42;6.90;;;2.93;;
11203;SDS011;5659;49.408;11.116;2023-11-21T04:28:08;7.43;;;3.27;;
11203;SDS011;5659;49.408;11.116;2023-11-21T04:30:34;5.87;;;3.43;;
11203;SDS011;5659;49.408;11.116;2023-11-21T04:33:00;8.10;;;3.37;;
11203;SDS011;5659;49.408;11.116;2023-11-21T04:35:27;6.93;;;3.30;;
11203;SDS011;5659;49.408;11.116;2023-11-21T04:37:53;7.17;;;2.80;;
11203;SDS011;5659;49.408;11.116;2023-11-21T04:40:19;8.33;;;3.07;;
11203;SDS011;5659;49.408;11.116;2023-11-21T04:42:45;9.20;;;3.00;;
11203;SDS011;5659;49.408;11.116;2023-11-21T04:45:11;12.07;;;3.03;;
11203;SDS011;5659;49.408;11.116;2023-11-21T04:47:37;13.67;;;3.13;;
11203;SDS011;5659;49.408;11.116;2023-11-21T04:50:03;10.10;;;3.30;;
11203;SDS011;5659;49.408;11.116;2023-11-21T04:52:30;9.90;;;3.70;;
11203;SDS011;5659;49.408;11.116;2023-11-21T04:54:58;8.77;;;3.30;;
11203;SDS011;5659;49.408;11.116;2023-11-21T04:57:26;11.87;;;4.10;;
11203;SDS011;5659;49.408;11.116;2023-11-21T04:59:53;10.80;;;3.87;;
11203;SDS011;5659;49.408;11.116;2023-11-21T05:02:19;8.03;;;3.77;;
11203;SDS011;5659;49.408;11.116;2023-11-21T05:04:46;6.93;;;3.27;;
11203;SDS011;5659;49.408;11.116;2023-11-21T05:07:12;7.87;;;3.43;;
11203;SDS011;5659;49.408;11.116;2023-11-21T05:09:47;13.73;;;3.57;;
11203;SDS011;5659;49.408;11.116;2023-11-21T05:12:15;10.00;;;3.83;;
11203;SDS011;5659;49.408;11.116;2023-11-21T05:14:41;6.90;;;3.53;;
11203;SDS011;5659;49.408;11.116;2023-11-21T05:17:07;12.07;;;3.60;;
11203;SDS011;5659;49.408;11.116;2023-11-21T05:19:33;8.10;;;3.97;;
11203;SDS011;5659;49.408;11.116;2023-11-21T05:22:00;10.43;;;3.53;;
11203;SDS011;5659;49.408;11.116;2023-11-21T05:24:26;6.80;;;3.93;;
11203;SDS011;5659;49.408;11.116;2023-11-21T05:26:53;11.53;;;4.13;;
11203;SDS011;5659;49.408;11.116;2023-11-21T05:29:19;7.70;;;3.80;;
11203;SDS011;5659;49.408;11.116;2023-11-21T05:31:45;5.43;;;3.87;;
11203;SDS011;5659;49.408;11.116;2023-11-21T05:34:11;13.87;;;4.27;;
11203;SDS011;5659;49.408;11.116;2023-11-21T05:36:37;9.53;;;4.10;;
11203;SDS011;5659;49.408;11.116;2023-11-21T05:39:03;10.60;;;4.00;;
11203;SDS011;5659;49.408;11.116;2023-11-21T05:41:29;9.90;;;4.10;;
11203;SDS011;5659;49.408;11.116;2023-11-21T05:43:55;14.07;;;4.53;;
11203;SDS011;5659;49.408;11.116;2023-11-21T05:46:21;8.00;;;4.30;;
11203;SDS011;5659;49.408;11.116;2023-11-21T05:48:47;14.63;;;4.57;;
11203;SDS011;5659;49.408;11.116;2023-11-21T05:51:13;8.90;;;5.10;;
11203;SDS011;5659;49.408;11.116;2023-11-21T05:53:39;6.90;;;4.87;;
11203;SDS011;5659;49.408;11.116;2023-11-21T05:56:05;8.77;;;4.97;;
11203;SDS011;5659;49.408;11.116;2023-11-21T05:58:32;11.73;;;4.90;;
11203;SDS011;5659;49.408;11.116;2023-11-21T06:00:58;7.00;;;4.80;;
11203;SDS011;5659;49.408;11.116;2023-11-21T06:03:24;7.17;;;5.27;;
11203;SDS011;5659;49.408;11.116;2023-11-21T06:05:50;10.30;;;5.20;;
11203;SDS011;5659;49.408;11.116;2023-11-21T06:08:16;10.37;;;5.23;;
11203;SDS011;5659;49.408;11.116;2023-11-21T06:10:42;12.83;;;5.07;;
11203;SDS011;5659;49.408;11.116;2023-11-21T06:13:09;13.10;;;5.50;;
11203;SDS011;5659;49.408;11.116;2023-11-21T06:15:35;9.47;;;5.80;;
11203;SDS011;5659;49.408;11.116;2023-11-21T06:18:01;6.97;;;4.97;;
11203;SDS011;5659;49.408;11.116;2023-11-21T06:20:27;12.63;;;5.47;;
11203;SDS011;5659;49.408;11.116;2023-11-21T06:22:53;12.00;;;5.50;;
11203;SDS011;5659;49.408;11.116;2023-11-21T06:25:20;12.27;;;5.50;;
11203;SDS011;5659;49.408;11.116;2023-11-21T06:27:46;10.73;;;5.10;;
11203;SDS011;5659;49.408;11.116;2023-11-21T06:30:13;9.83;;;5.80;;
11203;SDS011;5659;49.408;11.116;2023-11-21T06:32:40;23.57;;;6.17;;
11203;SDS011;5659;49.408;11.116;2023-11-21T06:35:07;10.60;;;5.63;;
11203;SDS011;5659;49.408;11.116;2023-11-21T06:37:36;13.10;;;5.33;;
11203;SDS011;5659;49.408;11.116;2023-11-21T06:40:02;9.20;;;6.13;;
11203;SDS011;5659;49.408;11.116;2023-11-21T06:42:31;15.63;;;5.97;;
11203;SDS011;5659;49.408;11.116;2023-11-21T06:44:58;12.80;;;6.10;;
11203;SDS011;5659;49.408;11.116;2023-11-21T06:47:24;10.67;;;6.30;;
11203;SDS011;5659;49.408;11.116;2023-11-21T06:49:51;12.87;;;6.03;;
11203;SDS011;5659;49.408;11.116;2023-11-21T06:52:17;14.07;;;5.87;;
11203;SDS011;5659;49.408;11.116;2023-11-21T06:54:43;16.37;;;6.20;;
11203;SDS011;5659;49.408;11.116;2023-11-21T06:57:10;11.50;;;5.70;;
11203;SDS011;5659;49.408;11.116;2023-11-21T06:59:36;9.23;;;6.20;;
11203;SDS011;5659;49.408;11.116;2023-11-21T07:02:02;12.43;;;6.20;;
11203;SDS011;5659;49.408;11.116;2023-11-21T07:04:28;11.07;;;6.20;;
11203;SDS011;5659;49.408;11.116;2023-11-21T07:06:54;11.50;;;5.53;;
11203;SDS011;5659;49.408;11.116;2023-11-21T07:09:20;15.80;;;6.60;;
11203;SDS011;5659;49.408;11.116;2023-11-21T07:11:47;11.30;;;5.90;;
11203;SDS011;5659;49.408;11.116;2023-11-21T07:14:13;13.33;;;6.13;;
11203;SDS011;5659;49.408;11.116;2023-11-21T07:16:39;11.50;;;6.10;;
11203;SDS011;5659;49.408;11.116;2023-11-21T07:19:05;10.77;;;5.93;;
11203;SDS011;5659;49.408;11.116;2023-11-21T07:21:32;11.57;;;6.30;;
11203;SDS011;5659;49.408;11.116;2023-11-21T07:23:58;12.00;;;6.30;;
11203;SDS011;5659;49.408;11.116;2023-11-21T07:26:24;15.90;;;6.97;;
11203;SDS011;5659;49.408;11.116;2023-11-21T07:28:51;8.37;;;6.60;;
11203;SDS011;5659;49.408;11.116;2023-11-21T07:31:17;11.43;;;6.67;;
11203;SDS011;5659;49.408;11.116;2023-11-21T07:33:44;12.57;;;6.80;;
11203;SDS011;5659;49.408;11.116;2023-11-21T07:36:12;14.00;;;6.53;;
11203;SDS011;5659;49.408;11.116;2023-11-21T07:38:38;10.87;;;6.47;;
11203;SDS011;5659;49.408;11.116;2023-11-21T07:41:04;11.90;;;6.17;;
11203;SDS011;5659;49.408;11.116;2023-11-21T07:43:32;10.47;;;6.63;;
11203;SDS011;5659;49.408;11.116;2023-11-21T07:46:00;10.87;;;6.47;;
11203;SDS011;5659;49.408;11.116;2023-11-21T07:48:27;10.47;;;6.23;;
11203;SDS011;5659;49.408;11.116;2023-11-21T07:50:53;10.97;;;6.43;;
11203;SDS011;5659;49.408;11.116;2023-11-21T07:53:19;9.30;;;6.37;;
11203;SDS011;5659;49.408;11.116;2023-11-21T07:55:46;12.53;;;6.43;;
11203;SDS011;5659;49.408;11.116;2023-11-21T07:58:12;9.23;;;6.50;;
11203;SDS011;5659;49.408;11.116;2023-11-21T08:00:38;11.20;;;6.80;;
11203;SDS011;5659;49.408;11.116;2023-11-21T08:03:04;11.80;;;7.07;;
11203;SDS011;5659;49.408;11.116;2023-11-21T08:05:31;9.93;;;6.90;;
11203;SDS011;5659;49.408;11.116;2023-11-21T08:07:57;14.47;;;6.63;;
11203;SDS011;5659;49.408;11.116;2023-11-21T08:10:23;12.07;;;6.67;;
11203;SDS011;5659;49.408;11.116;2023-11-21T08:12:49;10.43;;;6.50;;
11203;SDS011;5659;49.408;11.116;2023-11-21T08:15:15;15.63;;;6.87;;
11203;SDS011;5659;49.408;11.116;2023-11-21T08:17:41;10.57;;;6.50;;
11203;SDS011;5659;49.408;11.116;2023-11-21T08:20:07;10.23;;;6.60;;
11203;SDS011;5659;49.408;11.116;2023-11-21T08:22:35;8.40;;;5.90;;
11203;SDS011;5659;49.408;11.116;2023-11-21T08:25:02;9.33;;;6.10;;
11203;SDS011;5659;49.408;11.116;2023-11-21T08:27:29;10.57;;;6.63;;
11203;SDS011;5659;49.408;11.116;2023-11-21T08:29:55;9.93;;;6.50;;
11203;SDS011;5659;49.408;11.116;2023-11-21T08:32:22;8.47;;;6.03;;
11203;SDS011;5659;49.408;11.116;2023-11-21T08:34:48;10.00;;;5.97;;
11203;SDS011;5659;49.408;11.116;2023-11-21T08:37:16;11.63;;;6.20;;
11203;SDS011;5659;49.408;11.116;2023-11-21T08:39:43;13.60;;;6.77;;
11203;SDS011;5659;49.408;11.116;2023-11-21T08:42:09;10.90;;;6.43;;
11203;SDS011;5659;49.408;11.116;2023-11-21T08:44:35;11.13;;;6.33;;
11203;SDS011;5659;49.408;11.116;2023-11-21T08:47:01;10.37;;;5.93;;
11203;SDS011;5659;49.408;11.116;2023-11-21T08:49:28;7.90;;;6.43;;
11203;SDS011;5659;49.408;11.116;2023-11-21T08:51:55;9.90;;;7.13;;
11203;SDS011;5659;49.408;11.116;2023-11-21T08:54:22;11.43;;;6.70;;
11203;SDS011;5659;49.408;11.116;2023-11-21T08:56:48;11.60;;;6.47;;
11203;SDS011;5659;49.408;11.116;2023-11-21T08:59:15;12.23;;;7.23;;
11203;SDS011;5659;49.408;11.116;2023-11-21T09:01:41;12.57;;;8.07;;
11203;SDS011;5659;49.408;11.116;2023-11-21T09:04:07;11.13;;;8.50;;
11203;SDS011;5659;49.408;11.116;2023-11-21T09:06:33;9.93;;;7.50;;
11203;SDS011;5659;49.408;11.116;2023-11-21T09:09:00;11.30;;;6.77;;
11203;SDS011;5659;49.408;11.116;2023-11-21T09:11:26;9.70;;;7.50;;
11203;SDS011;5659;49.408;11.116;2023-11-21T09:13:58;12.27;;;8.70;;
11203;SDS011;5659;49.408;11.116;2023-11-21T09:16:24;14.90;;;9.50;;
11203;SDS011;5659;49.408;11.116;2023-11-21T09:18:50;11.30;;;8.70;;
11203;SDS011;5659;49.408;11.116;2023-11-21T09:21:16;12.10;;;8.80;;
11203;SDS011;5659;49.408;11.116;2023-11-21T09:23:43;13.20;;;7.90;;
11203;SDS011;5659;49.408;11.116;2023-11-21T09:26:09;15.90;;;8.57;;
11203;SDS011;5659;49.408;11.116;2023-11-21T09:28:35;13.80;;;9.50;;
11203;SDS011;5659;49.408;11.116;2023-11-21T09:31:04;11.60;;;8.37;;
11203;SDS011;5659;49.408;11.116;2023-11-21T09:33:30;13.53;;;7.73;;
11203;SDS011;5659;49.408;11.116;2023-11-21T09:35:56;10.30;;;7.03;;
11203;SDS011;5659;49.408;11.116;2023-11-21T09:38:22;12.73;;;7.57;;
11203;SDS011;5659;49.408;11.116;2023-11-21T09:40:49;9.80;;;7.43;;
11203;SDS011;5659;49.408;11.116;2023-11-21T09:43:18;9.23;;;6.80;;
11203;SDS011;5659;49.408;11.116;2023-11-21T09:45:45;9.75;;;7.10;;
11203;SDS011;5659;49.408;11.116;2023-11-21T09:48:12;12.80;;;7.90;;
11203;SDS011;5659;49.408;11.116;2023-11-21T09:50:39;9.90;;;7.83;;
11203;SDS011;5659;49.408;11.116;2023-11-21T09:53:08;9.33;;;7.40;;
11203;SDS011;5659;49.408;11.116;2023-11-21T09:55:36;9.83;;;7.57;;
11203;SDS011;5659;49.408;11.116;2023-11-21T09:58:04;13.03;;;8.47;;
11203;SDS011;5659;49.408;11.116;2023-11-21T10:00:33;10.50;;;7.27;;
11203;SDS011;5659;49.408;11.116;2023-11-21T10:02:59;10.23;;;7.60;;
11203;SDS011;5659;49.408;11.116;2023-11-21T10:05:27;9.67;;;7.47;;
11203;SDS011;5659;49.408;11.116;2023-11-21T10:07:53;10.43;;;7.30;;
11203;SDS011;5659;49.408;11.116;2023-11-21T10:10:22;9.10;;;6.57;;
11203;SDS011;5659;49.408;11.116;2023-11-21T10:12:49;8.90;;;7.03;;
11203;SDS011;5659;49.408;11.116;2023-11-21T10:15:18;7.38;;;6.18;;
11203;SDS011;5659;49.408;11.116;2023-11-21T10:17:46;9.23;;;6.10;;
11203;SDS011;5659;49.408;11.116;2023-11-21T10:20:13;8.82;;;5.72;;
11203;SDS011;5659;49.408;11.116;2023-11-21T10:22:40;9.95;;;5.38;;
11203;SDS011;5659;49.408;11.116;2023-11-21T10:25:07;8.15;;;5.75;;
11203;SDS011;5659;49.408;11.116;2023-11-21T10:27:34;9.43;;;5.40;;
11203;SDS011;5659;49.408;11.116;2023-11-21T10:30:03;5.95;;;4.47;;
11203;SDS011;5659;49.408;11.116;2023-11-21T10:32:29;5.20;;;4.18;;
11203;SDS011;5659;49.408;11.116;2023-11-21T10:34:57;6.20;;;3.55;;
11203;SDS011;5659;49.408;11.116;2023-11-21T10:37:31;5.20;;;3.63;;
11203;SDS011;5659;49.408;11.116;2023-11-21T10:40:00;5.88;;;4.05;;
11203;SDS011;5659;49.408;11.116;2023-11-21T10:42:26;5.30;;;3.60;;
11203;SDS011;5659;49.408;11.116;2023-11-21T10:44:53;3.58;;;3.22;;
11203;SDS011;5659;49.408;11.116;2023-11-21T10:47:19;6.07;;;3.40;;
11203;SDS011;5659;49.408;11.116;2023-11-21T10:49:50;6.13;;;3.55;;
11203;SDS011;5659;49.408;11.116;2023-11-21T10:52:18;5.00;;;3.58;;
11203;SDS011;5659;49.408;11.116;2023-11-21T10:54:45;5.30;;;3.30;;
11203;SDS011;5659;49.408;11.116;2023-11-21T10:57:11;15.00;;;4.05;;
11203;SDS011;5659;49.408;11.116;2023-11-21T10:59:40;4.78;;;3.40;;
11203;SDS011;5659;49.408;11.116;2023-11-21T11:02:10;5.15;;;3.83;;
11203;SDS011;5659;49.408;11.116;2023-11-21T11:04:45;5.75;;;3.20;;
11203;SDS011;5659;49.408;11.116;2023-11-21T11:07:12;4.93;;;3.30;;
11203;SDS011;5659;49.408;11.116;2023-11-21T11:09:38;5.63;;;3.00;;
11203;SDS011;5659;49.408;11.116;2023-11-21T11:12:04;5.75;;;3.08;;
11203;SDS011;5659;49.408;11.116;2023-11-21T11:14:32;5.88;;;3.05;;
11203;SDS011;5659;49.408;11.116;2023-11-21T11:16:58;5.45;;;3.20;;
11203;SDS011;5659;49.408;11.116;2023-11-21T11:19:25;4.38;;;3.20;;
11203;SDS011;5659;49.408;11.116;2023-11-21T11:27:46;3.95;;;3.08;;
11203;SDS011;5659;49.408;11.116;2023-11-21T11:37:18;4.72;;;3.08;;
11203;SDS011;5659;49.408;11.116;2023-11-21T11:39:44;4.50;;;2.70;;
11203;SDS011;5659;49.408;11.116;2023-11-21T11:42:14;4.32;;;3.20;;
11203;SDS011;5659;49.408;11.116;2023-11-21T11:47:24;7.40;;;3.20;;
11203;SDS011;5659;49.408;11.116;2023-11-21T11:52:40;3.57;;;3.27;;
11203;SDS011;5659;49.408;11.116;2023-11-21T11:55:07;5.53;;;3.63;;
11203;SDS011;5659;49.408;11.116;2023-11-21T11:57:38;6.07;;;2.93;;
11203;SDS011;5659;49.408;11.116;2023-11-21T12:02:40;4.93;;;3.10;;
11203;SDS011;5659;49.408;11.116;2023-11-21T12:05:12;4.93;;;3.03;;
11203;SDS011;5659;49.408;11.116;2023-11-21T12:07:41;4.33;;;3.23;;
11203;SDS011;5659;49.408;11.116;2023-11-21T12:10:07;6.67;;;3.77;;
11203;SDS011;5659;49.408;11.116;2023-11-21T12:12:36;5.23;;;3.73;;
11203;SDS011;5659;49.408;11.116;2023-11-21T12:15:03;3.57;;;2.90;;
11203;SDS011;5659;49.408;11.116;2023-11-21T12:17:30;6.10;;;3.08;;
11203;SDS011;5659;49.408;11.116;2023-11-21T12:20:02;6.72;;;3.00;;
11203;SDS011;5659;49.408;11.116;2023-11-21T12:22:30;3.17;;;2.80;;
11203;SDS011;5659;49.408;11.116;2023-11-21T12:24:56;6.00;;;3.30;;
11203;SDS011;5659;49.408;11.116;2023-11-21T12:27:22;5.30;;;2.93;;
11203;SDS011;5659;49.408;11.116;2023-11-21T12:29:48;6.03;;;3.50;;
11203;SDS011;5659;49.408;11.116;2023-11-21T12:32:14;4.00;;;3.60;;
11203;SDS011;5659;49.408;11.116;2023-11-21T12:34:42;7.10;;;4.40;;
11203;SDS011;5659;49.408;11.116;2023-11-21T12:37:09;7.13;;;3.70;;
11203;SDS011;5659;49.408;11.116;2023-11-21T12:39:35;7.77;;;3.87;;
11203;SDS011;5659;49.408;11.116;2023-11-21T12:42:01;9.00;;;3.47;;
11203;SDS011;5659;49.408;11.116;2023-11-21T12:44:27;5.63;;;3.45;;
11203;SDS011;5659;49.408;11.116;2023-11-21T12:46:54;6.27;;;3.80;;
11203;SDS011;5659;49.408;11.116;2023-11-21T12:49:20;5.00;;;3.40;;
11203;SDS011;5659;49.408;11.116;2023-11-21T12:51:47;9.50;;;3.93;;
11203;SDS011;5659;49.408;11.116;2023-11-21T12:54:13;6.50;;;3.83;;
11203;SDS011;5659;49.408;11.116;2023-11-21T12:56:40;5.70;;;3.40;;
11203;SDS011;5659;49.408;11.116;2023-11-21T12:59:06;5.90;;;3.70;;
11203;SDS011;5659;49.408;11.116;2023-11-21T13:01:36;5.78;;;3.80;;
11203;SDS011;5659;49.408;11.116;2023-11-21T13:04:02;5.55;;;3.95;;
11203;SDS011;5659;49.408;11.116;2023-11-21T13:06:29;5.55;;;3.60;;
11203;SDS011;5659;49.408;11.116;2023-11-21T13:09:03;9.27;;;4.25;;
11203;SDS011;5659;49.408;11.116;2023-11-21T13:11:30;6.35;;;3.80;;
11203;SDS011;5659;49.408;11.116;2023-11-21T13:13:59;5.10;;;3.65;;
11203;SDS011;5659;49.408;11.116;2023-11-21T13:16:25;5.25;;;4.45;;
11203;SDS011;5659;49.408;11.116;2023-11-21T13:18:52;4.32;;;3.92;;
11203;SDS011;5659;49.408;11.116;2023-11-21T13:21:18;4.90;;;3.60;;
11203;SDS011;5659;49.408;11.116;2023-11-21T13:23:47;7.18;;;3.67;;
11203;SDS011;5659;49.408;11.116;2023-11-21T13:26:15;4.40;;;3.90;;
11203;SDS011;5659;49.408;11.116;2023-11-21T13:28:42;7.57;;;3.80;;
11203;SDS011;5659;49.408;11.116;2023-11-21T13:31:11;5.13;;;3.85;;
11203;SDS011;5659;49.408;11.116;2023-11-21T13:33:51;6.07;;;4.00;;
11203;SDS011;5659;49.408;11.116;2023-11-21T13:36:29;8.87;;;3.73;;
11203;SDS011;5659;49.408;11.116;2023-11-21T13:38:58;5.83;;;3.80;;
11203;SDS011;5659;49.408;11.116;2023-11-21T13:41:29;8.50;;;4.00;;
11203;SDS011;5659;49.408;11.116;2023-11-21T13:43:58;5.63;;;3.85;;
11203;SDS011;5659;49.408;11.116;2023-11-21T13:46:39;6.73;;;3.87;;
11203;SDS011;5659;49.408;11.116;2023-11-21T13:49:06;9.50;;;3.47;;
11203;SDS011;5659;49.408;11.116;2023-11-21T13:51:35;6.67;;;3.40;;
11203;SDS011;5659;49.408;11.116;2023-11-21T13:54:12;5.70;;;3.50;;
11203;SDS011;5659;49.408;11.116;2023-11-21T13:56:41;4.45;;;2.95;;
11203;SDS011;5659;49.408;11.116;2023-11-21T13:59:09;5.72;;;3.45;;
11203;SDS011;5659;49.408;11.116;2023-11-21T14:01:45;5.90;;;3.30;;
11203;SDS011;5659;49.408;11.116;2023-11-21T14:04:22;3.88;;;2.80;;
11203;SDS011;5659;49.408;11.116;2023-11-21T14:07:04;6.38;;;2.65;;
11203;SDS011;5659;49.408;11.116;2023-11-21T14:09:50;4.93;;;2.70;;
11203;SDS011;5659;49.408;11.116;2023-11-21T14:12:17;3.17;;;2.50;;
11203;SDS011;5659;49.408;11.116;2023-11-21T14:14:43;4.68;;;2.65;;
11203;SDS011;5659;49.408;11.116;2023-11-21T14:17:11;3.75;;;2.97;;
11203;SDS011;5659;49.408;11.116;2023-11-21T14:19:37;4.38;;;2.80;;
11203;SDS011;5659;49.408;11.116;2023-11-21T14:22:07;5.47;;;3.10;;
11203;SDS011;5659;49.408;11.116;2023-11-21T14:24:34;7.45;;;2.80;;
11203;SDS011;5659;49.408;11.116;2023-11-21T14:27:01;5.35;;;2.97;;
11203;SDS011;5659;49.408;11.116;2023-11-21T14:29:28;4.78;;;3.13;;
11203;SDS011;5659;49.408;11.116;2023-11-21T14:31:54;4.88;;;3.28;;
11203;SDS011;5659;49.408;11.116;2023-11-21T14:34:23;6.80;;;3.20;;
11203;SDS011;5659;49.408;11.116;2023-11-21T14:36:50;4.72;;;3.45;;
11203;SDS011;5659;49.408;11.116;2023-11-21T14:39:16;5.18;;;3.35;;
11203;SDS011;5659;49.408;11.116;2023-11-21T14:41:49;5.47;;;3.20;;
11203;SDS011;5659;49.408;11.116;2023-11-21T14:44:15;6.60;;;3.05;;
11203;SDS011;5659;49.408;11.116;2023-11-21T14:46:42;6.85;;;3.35;;
11203;SDS011;5659;49.408;11.116;2023-11-21T14:49:11;12.93;;;3.40;;
11203;SDS011;5659;49.408;11.116;2023-11-21T14:51:49;8.23;;;3.40;;
11203;SDS011;5659;49.408;11.116;2023-11-21T14:54:28;5.72;;;3.15;;
11203;SDS011;5659;49.408;11.116;2023-11-21T14:57:10;5.83;;;3.53;;
11203;SDS011;5659;49.408;11.116;2023-11-21T14:59:42;8.07;;;3.50;;
11203;SDS011;5659;49.408;11.116;2023-11-21T15:02:09;6.68;;;3.55;;
11203;SDS011;5659;49.408;11.116;2023-11-21T15:04:46;5.32;;;3.08;;